Latest Weather Observations for Mareeba

IDQ60801

Issued at 12:01 pm EST Friday 28 August 2015 (issued every 30 minutes, with the page automatically refreshed every 10 minutes)

About weather observations | Map of weather stations | Latest weather observations for QLD | Other Formats
Station Details ID: 031210 Name: MAREEBA AIRPORT Lat: -17.07 Lon: 145.43 Height: 471.93 m
Data from the previous 72 hours. | See also: Recent months at Mareeba
Date/Time
EST
Temp
°C
App
Temp
°C
Dew
Point
Rel
Hum
%
Delta-T
°C
Wind Press
QNH
hPa
Press
MSL
hPa
Rain
since 9 am
mm
Dir
 
Spd
km/h
Gust
km/h
Spd
kts
Gust
kts
28/12:00pm 26.4 23.8 12.1 41 8.4 SE 17 26 9 14 1019.4 1017.6 0.0
28/11:30am 25.9 24.6 12.4 43 7.9 SSE 11 20 6 11 1019.9 - 0.0
28/11:00am 25.0 23.3 12.6 46 7.3 SSE 13 20 7 11 1020.4 - 0.0
28/10:30am 24.4 23.9 12.7 48 6.9 E 7 20 4 11 1020.7 - 0.0
28/10:00am 24.1 23.6 13.9 53 6.1 ENE 9 17 5 9 1020.9 - 0.0
28/09:30am 22.4 21.9 13.7 58 5.2 NE 9 17 5 9 1020.7 - 0.0
28/09:00am 21.8 21.9 14.4 63 4.4 NE 7 13 4 7 1020.7 1018.8 0.0
28/08:30am 20.7 19.5 15.0 70 3.4 SE 15 19 8 10 1020.8 - 0.0
28/08:00am 19.5 18.4 15.4 77 2.5 SSE 15 20 8 11 1020.6 - 0.0
28/07:30am 17.8 18.2 15.2 85 1.6 SE 7 11 4 6 1020.4 - 0.0
28/07:00am 16.4 16.1 14.4 88 1.2 SE 9 13 5 7 1020.0 - 0.0
28/06:30am 16.3 15.0 14.7 90 0.9 SSE 15 19 8 10 1019.7 - 0.0
28/06:00am 15.7 15.3 14.1 90 0.9 SE 9 11 5 6 1019.5 1017.7 0.0
28/05:30am 15.4 15.2 13.6 89 1.0 SE 7 11 4 6 1019.2 - 0.0
28/05:00am 15.6 15.2 14.1 91 0.9 SSE 9 11 5 6 1019.1 - 0.0
28/04:30am 15.5 15.0 13.9 90 0.9 SE 9 13 5 7 1019.0 - 0.0
28/04:00am 15.8 15.8 14.3 91 0.9 SSE 7 11 4 6 1018.9 - 0.0
28/03:30am 15.4 15.3 13.4 88 1.1 SSE 6 7 3 4 1018.8 - 0.0
28/03:00am 15.8 15.3 13.8 88 1.2 SSE 9 13 5 7 1018.9 1017.0 0.0
28/02:30am 16.6 15.9 14.4 87 1.3 SE 11 15 6 8 1019.0 - 0.0
28/02:00am 16.6 15.2 14.6 88 1.2 SSE 15 20 8 11 1019.1 - 0.0
28/01:30am 16.9 15.1 14.5 86 1.4 SSE 17 22 9 12 1019.5 - 0.0
28/01:00am 17.1 15.4 14.7 86 1.4 SSE 17 24 9 13 1019.9 - 0.0
28/12:30am 17.2 15.5 14.8 86 1.4 SSE 17 22 9 12 1020.0 - 0.0
28/12:00am 17.2 15.5 14.8 86 1.4 SSE 17 24 9 13 1020.3 1018.4 0.0
 
Date/Time
EST
Temp
°C
App
Temp
°C
Dew
Point
Rel
Hum
%
Delta-T
°C
Wind Press
QNH
hPa
Press
MSL
hPa
Rain
since 9 am
mm
Dir
 
Spd
km/h
Gust
km/h
Spd
kts
Gust
kts
27/11:30pm 17.2 15.5 14.7 85 1.5 SE 17 20 9 11 1020.5 - 0.0
27/11:00pm 17.2 16.2 14.7 85 1.5 SE 13 19 7 10 1020.6 - 0.0
27/10:30pm 17.5 16.2 14.8 84 1.6 SE 15 20 8 11 1020.9 - 0.0
27/10:00pm 17.2 16.0 14.1 82 1.8 SE 13 15 7 8 1020.9 - 0.0
27/09:30pm 17.6 16.4 13.9 79 2.2 SE 13 17 7 9 1020.9 - 0.0
27/09:00pm 18.1 16.5 13.8 76 2.5 SSE 15 19 8 10 1020.7 1018.8 0.0
27/08:30pm 18.3 17.3 13.4 73 2.8 SSE 11 13 6 7 1020.7 - 0.0
27/08:00pm 19.0 18.1 12.5 66 3.7 SE 9 13 5 7 1020.5 - 0.0
27/07:30pm 20.9 18.9 12.6 59 4.8 ESE 15 20 8 11 1020.2 - 0.0
27/07:00pm 21.2 19.6 12.9 59 4.8 ESE 13 20 7 11 1019.7 - 0.0
27/06:30pm 21.8 20.0 13.2 58 5.0 ESE 15 20 8 11 1019.1 - 0.0
27/06:00pm 22.7 20.8 12.9 54 5.7 ESE 15 20 8 11 1018.6 1016.7 0.0
27/05:30pm 23.6 20.9 12.9 51 6.3 SE 19 24 10 13 1018.2 - 0.0
27/05:00pm 24.7 21.9 12.6 47 7.1 ESE 19 26 10 14 1017.9 - 0.0
27/04:30pm 25.4 22.6 12.6 45 7.5 SE 19 26 10 14 1017.4 - 0.0
27/04:00pm 26.1 23.7 12.5 42 8.0 E 17 26 9 14 1017.2 - 0.0
27/03:30pm 26.2 23.7 12.3 42 8.2 E 17 24 9 13 1017.2 - 0.0
27/03:00pm 25.3 23.1 12.2 44 7.7 ENE 15 24 8 13 1017.4 1015.6 0.0
27/02:30pm 25.8 23.5 11.9 42 8.1 E 15 22 8 12 1017.6 - 0.0
27/02:00pm 26.1 24.9 12.9 44 7.8 E 11 20 6 11 1017.9 - 0.0
27/01:30pm 25.7 23.6 12.5 44 7.8 SE 15 26 8 14 1018.1 - 0.0
27/01:00pm 25.4 23.1 11.9 43 7.9 E 15 24 8 13 1018.5 - 0.0
27/12:30pm 25.3 23.5 12.2 44 7.7 NE 13 24 7 13 1019.1 - 0.0
27/12:00pm 24.6 21.8 12.5 46 7.1 E 19 32 10 17 1019.5 1017.7 0.0
27/11:30am 25.0 22.2 12.6 46 7.3 E 19 24 10 13 1020.1 - 0.0
27/11:00am 25.1 22.3 12.7 46 7.3 E 19 28 10 15 1020.5 - 0.0
27/10:30am 24.8 23.3 13.0 47 7.0 E 13 22 7 12 1020.6 - 0.0
27/10:00am 23.5 22.6 12.5 50 6.4 SE 9 17 5 9 1020.9 - 0.0
27/09:30am 22.4 21.3 13.2 56 5.4 NE 11 17 6 9 1020.9 - 0.0
27/09:00am 22.5 22.8 14.9 62 4.6 ESE 7 15 4 8 1020.9 1019.0 0.0
27/08:30am 21.3 20.0 14.7 66 4.0 SE 15 19 8 10 1020.8 - 0.0
27/08:00am 19.6 18.7 14.8 74 2.9 SE 13 20 7 11 1020.6 - 0.0
27/07:30am 18.1 16.4 14.6 80 2.1 SE 17 24 9 13 1020.3 - 0.0
27/07:00am 17.0 15.2 14.5 85 1.5 SE 17 28 9 15 1020.0 - 0.0
27/06:30am 16.4 14.5 14.2 87 1.3 SSE 17 26 9 14 1019.5 - 0.0
27/06:00am 16.2 14.2 14.0 87 1.3 SE 17 20 9 11 1019.2 1017.4 0.0
27/05:30am 16.2 15.0 14.0 87 1.3 SE 13 20 7 11 1019.0 - 0.0
27/05:00am 16.3 14.3 14.0 86 1.3 SSE 17 24 9 13 1018.8 - 0.0
27/04:30am 16.3 14.3 14.0 86 1.3 SE 17 20 9 11 1018.5 - 0.0
27/04:00am 16.4 13.5 14.1 86 1.3 SE 22 28 12 15 1018.4 - 0.0
27/03:30am 16.3 14.8 14.1 87 1.3 SE 15 20 8 11 1018.7 - 0.0
27/03:00am 16.3 14.4 14.1 87 1.3 SSE 17 22 9 12 1018.8 1016.9 0.0
27/02:30am 16.5 14.6 14.2 86 1.3 SSE 17 20 9 11 1018.9 - 0.0
27/02:00am 16.6 15.1 14.2 86 1.4 SE 15 20 8 11 1019.2 - 0.0
27/01:30am 16.7 15.5 14.0 84 1.6 SE 13 19 7 10 1019.5 - 0.0
27/01:00am 16.8 15.7 14.3 85 1.5 SE 13 20 7 11 1020.0 - 0.0
27/12:30am 17.1 16.5 14.6 85 1.5 SE 11 17 6 9 1020.3 - 0.0
27/12:00am 17.3 16.3 14.6 84 1.6 SSE 13 20 7 11 1020.5 1018.6 0.0
 
Date/Time
EST
Temp
°C
App
Temp
°C
Dew
Point
Rel
Hum
%
Delta-T
°C
Wind Press
QNH
hPa
Press
MSL
hPa
Rain
since 9 am
mm
Dir
 
Spd
km/h
Gust
km/h
Spd
kts
Gust
kts
26/11:30pm 17.7 16.3 14.6 82 1.8 SE 15 24 8 13 1020.6 - 0.0
26/11:00pm 17.9 16.2 14.8 82 1.8 SE 17 20 9 11 1020.7 - 0.0
26/10:30pm 17.7 16.3 14.6 82 1.8 SSE 15 24 8 13 1020.8 - 0.0
26/10:00pm 17.8 16.5 14.7 82 1.8 SSE 15 22 8 12 1020.8 - 0.0
26/09:30pm 17.8 15.9 14.3 80 2.1 SSE 17 22 9 12 1020.7 - 0.0
26/09:00pm 18.1 16.2 14.2 78 2.3 SSE 17 22 9 12 1020.6 1018.7 0.0
26/08:30pm 18.6 17.1 14.1 75 2.6 SSE 15 22 8 12 1020.6 - 0.0
26/08:00pm 18.5 18.0 13.8 74 2.7 S 9 13 5 7 1020.5 - 0.0
26/07:30pm 19.5 19.0 13.7 69 3.4 SE 9 13 5 7 1020.1 - 0.0
26/07:00pm 20.5 20.0 13.9 66 3.9 ESE 9 17 5 9 1019.7 - 0.0
26/06:30pm 20.9 21.3 12.6 59 4.8 ENE 2 9 1 5 1019.4 - 0.0
26/06:00pm 22.1 21.1 12.4 54 5.6 NE 9 17 5 9 1019.0 1017.1 0.0
26/05:30pm 23.0 21.6 13.5 55 5.6 NE 13 20 7 11 1018.6 - 0.0
26/05:00pm 24.2 22.8 13.4 51 6.4 NE 13 20 7 11 1018.2 - 0.0
26/04:30pm 25.0 22.0 11.9 44 7.6 ENE 19 28 10 15 1017.9 - 0.0
26/04:00pm 25.9 23.5 11.3 40 8.4 ENE 15 24 8 13 1017.6 - 0.0
26/03:30pm 26.5 24.0 11.0 38 8.9 NE 15 28 8 15 1017.6 - 0.0
26/03:00pm 27.4 24.9 11.0 36 9.5 ENE 15 24 8 13 1017.6 1015.7 0.0
26/02:30pm 27.4 24.3 10.2 34 9.8 NNE 17 26 9 14 1017.7 - 0.0
26/02:00pm 27.6 24.3 10.8 35 9.7 NE 19 28 10 15 1018.0 - 0.0
26/01:30pm 28.4 26.8 11.5 35 9.9 ENE 11 20 6 11 1018.3 - 0.0
26/01:00pm 27.3 25.1 10.9 36 9.5 ENE 13 20 7 11 1018.6 - 0.0
26/12:30pm 27.1 25.2 13.1 42 8.4 NNE 15 24 8 13 1019.0 - 0.0
26/12:00pm 26.2 24.2 11.5 40 8.5 NE 13 24 7 13 1019.5 1017.7 0.0
26/11:30am 26.4 24.6 13.2 44 7.9 NE 15 26 8 14 1020.0 - 0.0
26/11:00am 25.5 24.4 12.0 43 7.9 NE 9 20 5 11 1020.5 - 0.0
26/10:30am 24.5 23.7 12.8 48 6.9 NE 9 15 5 8 1020.9 - 0.0
26/10:00am 23.2 22.6 13.4 54 5.8 E 9 17 5 9 1021.2 - 0.0
26/09:30am 22.0 21.4 13.4 58 5.1 NNE 9 13 5 7 1021.2 - 0.0
26/09:00am 21.2 21.0 13.6 62 4.5 E 7 15 4 8 1021.2 1019.4 0.0
26/08:30am 19.9 20.1 14.7 72 3.1 ESE 7 11 4 6 1021.0 - 0.0
26/08:00am 18.7 18.0 15.4 81 2.0 SSE 13 17 7 9 1020.9 - 0.0
26/07:30am 17.4 16.9 15.0 86 1.4 SSE 11 15 6 8 1020.6 - 0.0
26/07:00am 16.2 16.0 14.7 91 0.9 SE 9 13 5 7 1020.4 - 0.0
26/06:30am 15.8 15.1 14.2 90 0.9 SE 11 13 6 7 1020.0 - 0.0
26/06:00am 15.9 15.2 14.3 90 0.9 SE 11 15 6 8 1019.7 1017.9 0.0
26/05:30am 16.1 14.7 14.5 90 0.9 SSE 15 19 8 10 1019.2 - 0.0
26/05:00am 16.3 15.3 14.5 89 1.1 SE 13 17 7 9 1019.1 - 0.0
26/04:30am 16.3 15.3 14.5 89 1.1 SE 13 17 7 9 1019.0 - 0.0
26/04:00am 16.5 15.5 14.7 89 1.1 SE 13 15 7 8 1018.9 - 0.0
26/03:30am 16.6 15.8 15.0 90 0.9 SE 13 17 7 9 1019.2 - 0.0
26/03:00am 16.2 16.2 15.2 94 0.6 SE 9 13 5 7 1019.5 1017.7 0.0
26/02:30am 14.7 15.7 13.2 91 0.9 CALM 0 0 0 0 1020.0 - 0.0
26/02:00am 15.4 16.2 13.8 90 0.9 SE 2 7 1 4 1020.1 - 0.0
26/01:30am 15.6 15.4 13.6 88 1.1 SE 7 9 4 5 1020.3 - 0.0
26/01:00am 16.0 16.1 14.4 90 0.9 SE 7 11 4 6 1020.7 - 0.0
26/12:30am 16.3 16.8 15.0 92 0.8 SE 6 7 3 4 1020.9 - 0.0
26/12:00am 15.1 16.1 13.3 89 1.0 CALM 0 0 0 0 1021.0 1019.1 0.0
 
Date/Time
EST
Temp
°C
App
Temp
°C
Dew
Point
Rel
Hum
%
Delta-T
°C
Wind Press
QNH
hPa
Press
MSL
hPa
Rain
since 9 am
mm
Dir
 
Spd
km/h
Gust
km/h
Spd
kts
Gust
kts
25/11:30pm 15.6 16.8 13.8 89 1.0 CALM 0 0 0 0 1021.0 - 0.0
25/11:00pm 15.6 16.7 13.4 87 1.3 CALM 0 0 0 0 1021.0 - 0.0
25/10:30pm 16.3 17.7 14.3 88 1.2 CALM 0 0 0 0 1021.2 - 0.0
25/10:00pm 16.5 16.5 14.3 87 1.3 SW 7 9 4 5 1021.1 - 0.0
25/09:30pm 16.9 18.3 14.4 85 1.5 CALM 0 0 0 0 1021.2 - 0.0
25/09:00pm 17.7 19.3 15.0 84 1.6 CALM 0 0 0 0 1021.0 1019.1 0.0
25/08:30pm 18.6 19.7 15.5 82 1.9 ENE 4 9 2 5 1020.9 - 0.0
25/08:00pm 19.2 20.7 15.7 80 2.1 NNE 2 7 1 4 1020.7 - 0.0
25/07:30pm 19.9 20.8 16.0 78 2.4 E 6 9 3 5 1020.4 - 0.0
25/07:00pm 20.4 20.6 15.8 75 2.8 NNE 9 19 5 10 1020.0 - 0.0
25/06:30pm 21.3 22.0 15.6 70 3.5 NE 6 13 3 7 1019.4 - 0.0
25/06:00pm 22.3 21.6 15.4 65 4.2 NE 13 24 7 13 1019.2 1017.4 0.0
25/05:30pm 23.1 22.3 15.2 61 4.8 NE 13 24 7 13 1018.9 - 0.0
25/05:00pm 24.3 23.3 15.5 58 5.4 NNE 15 22 8 12 1018.6 - 0.0
25/04:30pm 24.8 23.3 15.4 56 5.8 NNE 17 26 9 14 1018.2 - 0.0
25/04:00pm 26.6 26.1 15.9 51 6.7 NNE 13 22 7 12 1017.9 - 0.0
25/03:30pm 26.9 26.3 15.6 50 7.0 ENE 13 24 7 13 1017.8 - 0.0
25/03:00pm 26.7 25.7 15.7 51 6.8 ENE 15 22 8 12 1017.9 1016.0 0.0
25/02:30pm 27.1 26.2 14.8 47 7.6 ESE 13 24 7 13 1018.1 - 0.0
25/02:00pm 28.1 27.4 14.3 42 8.5 SSE 11 19 6 10 1018.3 - 0.0
25/01:30pm 27.9 26.8 15.2 46 7.9 SE 15 24 8 13 1018.6 - 0.0
25/01:00pm 27.9 26.8 15.2 46 7.9 ESE 15 24 8 13 1019.2 - 0.0
25/12:30pm 26.3 24.6 14.7 48 7.1 SE 17 28 9 15 1019.5 - 0.0

Other Formats:

Comma delimited format used in spreadsheet applications
http://www.bom.gov.au/fwo/IDQ60801/IDQ60801.95286.axf

JavaScript Object Notation format (JSON) in row-major order
http://www.bom.gov.au/fwo/IDQ60801/IDQ60801.95286.json